createdAt,value
2022-11-24T00:01:19.079Z,77659.31
2022-11-24T00:03:52.411Z,77655.25
2022-11-24T00:06:19.515Z,77647.16
2022-11-24T00:08:47.249Z,77643.09
2022-11-24T00:11:20.905Z,77655.25
2022-11-24T00:13:48.697Z,77661.34
2022-11-24T00:16:21.473Z,77673.50
2022-11-24T00:18:50.107Z,77667.44
2022-11-24T00:21:18.703Z,77671.47
2022-11-24T00:23:47.142Z,77661.34
2022-11-24T00:26:19.715Z,77667.44
2022-11-24T00:28:49.149Z,77665.41
2022-11-24T00:31:21.737Z,77663.38
2022-11-24T00:33:52.116Z,77655.25
2022-11-24T00:36:20.244Z,77647.16
2022-11-24T00:38:48.144Z,77655.25
2022-11-24T00:41:15.056Z,77665.41
2022-11-24T00:43:42.244Z,77665.41
2022-11-24T00:46:09.645Z,77667.44
2022-11-24T00:48:36.982Z,77655.25
2022-11-24T00:51:07.144Z,77651.19
2022-11-24T00:53:34.382Z,77649.19
2022-11-24T00:56:04.053Z,77651.19
2022-11-24T00:58:32.225Z,77641.06
2022-11-24T01:01:07.865Z,77639.03
2022-11-24T01:03:35.599Z,77634.97
2022-11-24T01:06:15.060Z,77647.16
2022-11-24T01:08:43.061Z,77643.09
2022-11-24T01:11:17.451Z,77639.03
2022-11-24T01:13:46.975Z,77639.03
2022-11-24T01:16:15.385Z,77643.09
2022-11-24T01:18:42.787Z,77641.06
2022-11-24T01:21:10.394Z,77643.09
2022-11-24T01:23:38.168Z,77643.09
2022-11-24T01:26:07.089Z,77643.09
2022-11-24T01:28:35.275Z,77639.03
2022-11-24T01:31:05.922Z,77634.97
2022-11-24T01:33:34.527Z,77630.94
2022-11-24T01:36:02.442Z,77632.94
2022-11-24T01:38:30.373Z,77639.03
2022-11-24T01:41:02.172Z,77639.03
2022-11-24T01:43:29.467Z,77634.97
2022-11-24T01:45:58.077Z,77643.09
2022-11-24T01:48:30.451Z,77643.09
2022-11-24T01:51:26.874Z,77643.09
2022-11-24T01:54:00.469Z,77639.03
2022-11-24T01:56:28.803Z,77639.03
2022-11-24T01:59:00.683Z,77632.94
2022-11-24T02:01:29.368Z,77639.03
2022-11-24T02:03:57.733Z,77637.00
2022-11-24T02:06:29.365Z,77651.19
2022-11-24T02:09:24.127Z,77649.19
2022-11-24T02:11:53.817Z,77655.25
2022-11-24T02:14:23.866Z,77655.25
2022-11-24T02:16:53.101Z,77651.19
2022-11-24T02:19:37.716Z,77657.28
2022-11-24T02:22:05.201Z,77661.34
2022-11-24T02:24:47.391Z,77655.25
2022-11-24T02:27:14.400Z,77653.22
2022-11-24T02:29:42.019Z,77651.19
2022-11-24T02:32:11.416Z,77647.16
2022-11-24T02:34:38.715Z,77645.13
2022-11-24T02:37:05.697Z,77639.03
2022-11-24T02:39:33.199Z,77639.03
2022-11-24T02:42:05.282Z,77634.97
2022-11-24T02:44:37.902Z,77634.97
2022-11-24T02:47:07.284Z,77634.97
2022-11-24T02:49:34.795Z,77630.94
2022-11-24T02:52:02.012Z,77634.97
2022-11-24T02:54:29.341Z,77626.88
2022-11-24T02:56:56.726Z,77630.94
2022-11-24T02:59:24.178Z,77626.88
2022-11-24T03:01:51.163Z,77630.94
2022-11-24T03:04:18.382Z,77634.97
2022-11-24T03:06:45.455Z,77630.94
2022-11-24T03:09:12.857Z,77630.94
2022-11-24T03:11:40.035Z,77637.00
2022-11-24T03:14:07.667Z,77637.00
2022-11-24T03:16:34.922Z,77634.97
2022-11-24T03:19:02.541Z,77632.94
2022-11-24T03:21:29.877Z,77637.00
2022-11-24T03:23:57.076Z,77630.94
2022-11-24T03:26:26.362Z,77639.03
2022-11-24T03:28:55.426Z,77637.00
2022-11-24T03:31:23.118Z,77634.97
2022-11-24T03:33:50.474Z,77639.03
2022-11-24T03:36:17.699Z,77637.00
2022-11-24T03:38:45.631Z,77643.09
2022-11-24T03:41:12.925Z,77647.16
2022-11-24T03:43:43.807Z,77632.94
2022-11-24T03:46:12.486Z,77651.19
2022-11-24T03:48:39.805Z,77651.19
2022-11-24T03:51:06.986Z,77651.19
2022-11-24T03:53:34.456Z,77651.19
2022-11-24T03:56:02.224Z,77647.16
2022-11-24T03:58:30.273Z,77647.16
2022-11-24T04:00:58.007Z,77655.25
2022-11-24T04:03:26.265Z,77651.19
2022-11-24T04:05:53.101Z,77655.25
2022-11-24T04:08:20.467Z,77655.25
2022-11-24T04:10:52.403Z,77661.34
2022-11-24T04:13:22.262Z,77655.25
2022-11-24T04:15:49.414Z,77655.25
2022-11-24T04:18:16.678Z,77651.19
2022-11-24T04:20:43.805Z,77647.16
2022-11-24T04:23:11.497Z,77653.22
2022-11-24T04:25:38.873Z,77655.25
2022-11-24T04:28:06.699Z,77659.31
2022-11-24T04:30:34.004Z,77659.31
2022-11-24T04:33:01.134Z,77647.16
2022-11-24T04:35:28.465Z,77647.16
2022-11-24T04:37:55.866Z,77659.31
2022-11-24T04:40:22.763Z,77659.31
2022-11-24T04:42:56.845Z,77667.44
2022-11-24T04:45:23.907Z,77659.31
2022-11-24T04:47:51.187Z,77655.25
2022-11-24T04:50:18.600Z,77659.31
2022-11-24T04:52:46.071Z,77659.31
2022-11-24T04:55:13.239Z,77659.31
2022-11-24T04:57:40.835Z,77661.34
2022-11-24T05:00:09.257Z,77663.38
2022-11-24T05:02:36.886Z,77663.38
2022-11-24T05:05:04.610Z,77663.38
2022-11-24T05:07:32.060Z,77667.44
2022-11-24T05:10:17.925Z,77663.38
2022-11-24T05:12:51.045Z,77673.50
2022-11-24T05:15:18.317Z,77671.47
2022-11-24T05:17:45.447Z,77663.38
2022-11-24T05:20:12.347Z,77659.31
2022-11-24T05:22:39.858Z,77655.25
2022-11-24T05:25:06.964Z,77659.31
2022-11-24T05:27:34.307Z,77659.31
2022-11-24T05:30:01.413Z,77667.44
2022-11-24T05:32:28.834Z,77671.47
2022-11-24T05:34:56.907Z,77667.44
2022-11-24T05:37:25.767Z,77677.56
2022-11-24T05:39:54.671Z,77683.66
2022-11-24T05:42:46.239Z,77675.53
2022-11-24T05:45:20.191Z,77679.59
2022-11-24T05:47:49.014Z,77683.66
2022-11-24T05:50:18.626Z,77679.59
2022-11-24T05:52:46.099Z,77691.75
2022-11-24T05:55:15.108Z,77687.69
2022-11-24T05:57:42.663Z,77683.66
2022-11-24T06:00:10.879Z,77681.63
2022-11-24T06:02:41.118Z,77685.69
2022-11-24T06:05:08.575Z,77687.69
2022-11-24T06:07:35.884Z,77689.72
2022-11-24T06:10:03.751Z,77687.69
2022-11-24T06:12:31.170Z,77683.66
2022-11-24T06:14:57.977Z,77683.66
2022-11-24T06:17:25.470Z,77683.66
2022-11-24T06:19:52.477Z,77691.75
2022-11-24T06:22:19.726Z,77703.94
2022-11-24T06:24:47.271Z,77683.66
2022-11-24T06:27:14.695Z,77683.66
2022-11-24T06:29:42.356Z,77675.53
2022-11-24T06:32:10.098Z,77675.53
2022-11-24T06:34:37.543Z,77675.53
2022-11-24T06:37:05.150Z,77667.44
2022-11-24T06:39:32.344Z,77663.38
2022-11-24T06:42:00.341Z,77659.31
2022-11-24T06:44:27.447Z,77667.44
2022-11-24T06:46:55.153Z,77671.47
2022-11-24T06:49:22.305Z,77671.47
2022-11-24T06:51:50.513Z,77671.47
2022-11-24T06:54:21.410Z,77667.44
2022-11-24T06:56:48.821Z,77661.34
2022-11-24T06:59:20.325Z,77667.44
2022-11-24T07:01:47.773Z,77663.38
2022-11-24T07:04:16.173Z,77663.38
2022-11-24T07:06:44.290Z,77659.31
2022-11-24T07:09:13.548Z,77663.38
2022-11-24T07:11:41.188Z,77659.31
2022-11-24T07:14:08.869Z,77655.25
2022-11-24T07:16:36.892Z,77653.22
2022-11-24T07:19:03.966Z,77659.31
2022-11-24T07:21:31.448Z,77663.38
2022-11-24T07:23:58.868Z,77669.44
2022-11-24T07:26:27.704Z,77667.44
2022-11-24T07:28:55.118Z,77665.41
2022-11-24T07:31:25.207Z,77673.50
2022-11-24T07:33:54.416Z,77675.53
2022-11-24T07:36:23.446Z,77661.34
2022-11-24T07:38:50.997Z,77663.38
2022-11-24T07:41:19.741Z,77659.31
2022-11-24T07:43:47.559Z,77659.31
2022-11-24T07:46:17.551Z,77657.28
2022-11-24T07:48:45.312Z,77655.25
2022-11-24T07:51:13.665Z,77655.25
2022-11-24T07:53:41.066Z,77661.34
2022-11-24T07:56:10.111Z,77663.38
2022-11-24T07:58:37.802Z,77663.38
2022-11-24T08:01:32.153Z,77661.34
2022-11-24T08:03:59.145Z,77659.31
2022-11-24T08:06:36.195Z,77663.38
2022-11-24T08:09:07.236Z,77667.44
2022-11-24T08:11:34.888Z,77665.41
2022-11-24T08:14:01.875Z,77659.31
2022-11-24T08:16:29.418Z,77643.09
2022-11-24T08:18:56.414Z,77637.00
2022-11-24T08:21:24.895Z,77639.03
2022-11-24T08:23:56.659Z,77626.88
2022-11-24T08:26:25.256Z,77622.81
2022-11-24T08:28:58.971Z,77618.75
2022-11-24T08:31:32.943Z,77622.81
2022-11-24T08:34:01.639Z,77626.88
2022-11-24T08:36:30.152Z,77626.88
2022-11-24T08:38:59.347Z,77626.88
2022-11-24T08:41:28.798Z,77630.94
2022-11-24T08:43:56.643Z,77626.88
2022-11-24T08:46:24.317Z,77626.88
2022-11-24T08:48:54.214Z,77626.88
2022-11-24T08:51:25.131Z,77614.69
2022-11-24T08:54:01.144Z,77614.69
2022-11-24T08:56:31.311Z,77608.63
2022-11-24T08:58:59.298Z,77614.69
2022-11-24T09:01:27.369Z,77606.59
2022-11-24T09:03:54.565Z,77602.53
2022-11-24T09:06:25.151Z,77604.56
2022-11-24T09:08:54.617Z,77598.47
2022-11-24T09:11:23.091Z,77586.31
2022-11-24T09:13:50.500Z,77586.31
2022-11-24T09:16:23.346Z,77582.25
2022-11-24T09:19:02.498Z,77594.44
2022-11-24T09:21:33.692Z,77608.63
2022-11-24T09:24:00.558Z,77606.59
2022-11-24T09:26:33.493Z,77606.59
2022-11-24T09:29:01.886Z,77602.53
2022-11-24T09:31:35.942Z,77606.59
2022-11-24T09:34:22.358Z,77610.66
2022-11-24T09:36:51.725Z,77622.81
2022-11-24T09:39:18.733Z,77622.81
2022-11-24T09:42:14.868Z,77634.97
2022-11-24T09:45:11.080Z,77639.03
2022-11-24T09:47:41.267Z,77639.03
2022-11-24T09:50:24.242Z,77647.16
2022-11-24T09:53:03.748Z,77649.19
2022-11-24T09:55:42.853Z,77647.16
2022-11-24T09:58:49.170Z,77649.19
2022-11-24T10:01:30.758Z,77637.00
2022-11-24T10:04:05.649Z,77634.97
2022-11-24T10:06:58.716Z,77620.78
2022-11-24T10:09:32.929Z,77614.69
2022-11-24T10:12:24.065Z,77614.69
2022-11-24T10:15:10.115Z,77614.69
2022-11-24T10:17:43.530Z,77610.66
2022-11-24T10:20:23.166Z,77600.50
2022-11-24T10:23:17.237Z,77606.59
2022-11-24T10:25:57.546Z,77602.53
2022-11-24T10:28:32.488Z,77582.25
2022-11-24T10:31:17.681Z,77578.22
2022-11-24T10:33:45.341Z,77570.09
2022-11-24T10:36:20.503Z,77557.94
2022-11-24T10:39:05.517Z,77561.97
2022-11-24T10:41:58.025Z,77564.00
2022-11-24T10:44:25.472Z,77564.00
2022-11-24T10:46:53.045Z,77576.19
2022-11-24T10:49:25.269Z,77570.09
2022-11-24T10:52:15.314Z,77566.03
2022-11-24T10:55:00.016Z,77580.22
2022-11-24T10:57:36.520Z,77590.38
2022-11-24T11:00:24.044Z,77578.22
2022-11-24T11:03:11.524Z,77576.19
2022-11-24T11:05:43.147Z,77576.19
2022-11-24T11:08:20.950Z,77566.03
2022-11-24T11:11:30.313Z,77568.06
2022-11-24T11:14:03.798Z,77561.97
2022-11-24T11:16:46.162Z,77549.81
2022-11-24T11:19:50.928Z,77557.94
2022-11-24T11:22:25.139Z,77566.03
2022-11-24T11:25:10.679Z,77574.16
2022-11-24T11:27:39.754Z,77570.09
2022-11-24T11:36:11.329Z,77582.25
2022-11-24T11:38:40.671Z,77590.38
2022-11-24T11:41:18.979Z,77586.31
2022-11-24T11:43:50.583Z,77586.31
2022-11-24T11:46:17.948Z,77594.44
2022-11-24T11:48:48.146Z,77602.53
2022-11-24T11:51:31.406Z,77610.66
2022-11-24T11:54:07.750Z,77612.69
2022-11-24T11:56:46.552Z,77610.66
2022-11-24T11:59:16.722Z,77602.53
2022-11-24T12:02:08.061Z,77600.50
2022-11-24T12:04:57.151Z,77598.47
2022-11-24T12:07:54.622Z,77594.44
2022-11-24T12:10:42.402Z,77590.38
2022-11-24T12:13:30.620Z,77594.44
2022-11-24T12:16:08.255Z,77586.31
2022-11-24T12:18:58.472Z,77586.31
2022-11-24T12:21:34.306Z,77578.22
2022-11-24T12:24:14.951Z,77570.09
2022-11-24T12:27:43.373Z,77574.16
2022-11-24T12:30:18.628Z,77578.22
2022-11-24T12:33:11.876Z,77578.22
2022-11-24T12:36:03.824Z,77561.97
2022-11-24T12:38:55.645Z,77570.09
2022-11-24T12:42:00.314Z,77578.22
2022-11-24T12:45:09.961Z,77578.22
2022-11-24T12:48:04.713Z,77578.22
2022-11-24T12:50:37.697Z,77574.16
2022-11-24T12:53:04.951Z,77576.19
2022-11-24T12:55:34.429Z,77566.03
2022-11-24T12:58:13.657Z,77570.09
2022-11-24T13:00:51.891Z,77570.09
2022-11-24T13:03:32.742Z,77570.09
2022-11-24T13:06:33.901Z,77574.16
2022-11-24T13:09:12.943Z,77570.09
2022-11-24T13:11:42.802Z,77586.31
2022-11-24T13:14:13.584Z,77582.25
2022-11-24T13:17:27.524Z,77590.38
2022-11-24T13:19:41.589Z,77590.38
2022-11-24T13:22:10.615Z,77590.38
2022-11-24T13:24:39.695Z,77590.38
2022-11-24T13:27:16.195Z,77582.25
2022-11-24T13:29:48.953Z,77586.31
2022-11-24T13:32:19.167Z,77586.31
2022-11-24T13:34:55.644Z,77586.31
2022-11-24T13:37:31.459Z,77586.31
2022-11-24T13:40:13.311Z,77594.44
2022-11-24T13:42:56.496Z,77600.50
2022-11-24T13:45:39.311Z,77590.38
2022-11-24T13:48:22.231Z,77590.38
2022-11-24T13:50:50.052Z,77594.44
2022-11-24T13:53:35.210Z,77602.53
2022-11-24T13:56:08.155Z,77606.59
2022-11-24T13:58:40.759Z,77614.69
2022-11-24T14:01:13.024Z,77618.75
2022-11-24T14:07:01.171Z,77639.03
2022-11-24T14:09:52.069Z,77639.03
2022-11-24T14:12:23.875Z,77639.03
2022-11-24T14:14:53.173Z,77639.03
2022-11-24T14:17:27.604Z,77630.94
2022-11-24T14:19:56.759Z,77634.97
2022-11-24T14:22:36.577Z,77641.06
2022-11-24T14:25:05.583Z,77641.06
2022-11-24T14:27:36.961Z,77647.16
2022-11-24T14:30:09.907Z,77651.19
2022-11-24T14:32:39.881Z,77655.25
2022-11-24T14:35:28.125Z,77659.31
2022-11-24T14:37:56.415Z,77655.25
2022-11-24T14:40:40.127Z,77659.31
2022-11-24T14:43:19.135Z,77653.22
2022-11-24T14:46:02.455Z,77655.25
2022-11-24T14:48:37.219Z,77659.31
2022-11-24T14:51:13.190Z,77663.38
2022-11-24T14:53:45.554Z,77667.44
2022-11-24T14:56:36.149Z,77675.53
2022-11-24T14:59:17.338Z,77675.53
2022-11-24T15:01:44.461Z,77677.56
2022-11-24T15:07:27.044Z,77681.63
2022-11-24T15:10:00.871Z,77683.66
2022-11-24T15:12:41.372Z,77683.66
2022-11-24T15:15:14.625Z,77679.59
2022-11-24T15:17:57.450Z,77691.75
2022-11-24T15:20:45.694Z,77687.69
2022-11-24T15:23:26.190Z,77695.81
2022-11-24T15:26:16.754Z,77701.91
2022-11-24T15:28:46.148Z,77705.94
2022-11-24T15:31:14.495Z,77699.88
2022-11-24T15:33:42.323Z,77703.94
2022-11-24T15:36:11.952Z,77703.94
2022-11-24T15:38:38.848Z,77714.06
2022-11-24T15:41:18.213Z,77707.97
2022-11-24T15:43:45.503Z,77707.97
2022-11-24T15:46:13.183Z,77707.97
2022-11-24T15:48:40.151Z,77707.97
2022-11-24T15:51:13.890Z,77710.00
2022-11-24T15:53:54.058Z,77703.94
2022-11-24T15:56:25.466Z,77712.03
2022-11-24T15:58:54.346Z,77712.03
2022-11-24T16:01:24.075Z,77712.03
2022-11-24T16:03:51.060Z,77716.09
2022-11-24T16:06:24.524Z,77720.16
2022-11-24T16:08:53.491Z,77716.09
2022-11-24T16:11:21.840Z,77716.09
2022-11-24T16:13:53.345Z,77720.16
2022-11-24T16:16:23.324Z,77720.16
2022-11-24T16:18:50.675Z,77722.19
2022-11-24T16:21:18.245Z,77716.09
2022-11-24T16:23:46.605Z,77716.09
2022-11-24T16:26:13.928Z,77720.16
2022-11-24T16:28:40.987Z,77724.19
2022-11-24T16:31:08.494Z,77724.19
2022-11-24T16:33:38.670Z,77728.25
2022-11-24T16:36:06.454Z,77732.31
2022-11-24T16:38:33.500Z,77734.34
2022-11-24T16:41:00.810Z,77736.38
2022-11-24T16:43:29.359Z,77732.31
2022-11-24T16:46:08.684Z,77740.44
2022-11-24T16:48:37.148Z,77730.28
2022-11-24T16:51:10.108Z,77732.31
2022-11-24T16:53:37.550Z,77732.31
2022-11-24T16:56:05.430Z,77740.44
2022-11-24T16:58:32.825Z,77738.41
2022-11-24T17:01:07.962Z,77736.38
2022-11-24T17:03:37.514Z,77740.44
2022-11-24T17:06:07.257Z,77736.38
2022-11-24T17:08:36.068Z,77734.34
2022-11-24T17:11:08.229Z,77742.44
2022-11-24T17:13:35.059Z,77732.31
2022-11-24T17:16:07.264Z,77736.38
2022-11-24T17:18:34.928Z,77728.25
2022-11-24T17:21:07.727Z,77736.38
2022-11-24T17:23:36.282Z,77736.38
2022-11-24T17:26:10.608Z,77748.53
2022-11-24T17:28:38.443Z,77752.59
2022-11-24T17:31:10.461Z,77756.66
2022-11-24T17:33:37.290Z,77756.66
2022-11-24T17:36:06.771Z,77756.66
2022-11-24T17:38:35.177Z,77764.75
2022-11-24T17:41:02.787Z,77768.81
2022-11-24T17:43:29.786Z,77760.69
2022-11-24T17:46:01.029Z,77764.75
2022-11-24T17:48:29.066Z,77764.75
2022-11-24T17:51:03.531Z,77768.81
2022-11-24T17:53:31.601Z,77772.88
2022-11-24T17:56:00.106Z,77772.88
2022-11-24T17:58:28.586Z,77785.03
2022-11-24T18:00:56.811Z,77793.16
2022-11-24T18:03:25.720Z,77789.09
2022-11-24T18:05:52.899Z,77797.19
2022-11-24T18:08:20.323Z,77801.25
2022-11-24T18:10:47.731Z,77799.22
2022-11-24T18:13:33.797Z,77799.22
2022-11-24T18:16:04.273Z,77793.16
2022-11-24T18:18:31.326Z,77803.28
2022-11-24T18:21:00.973Z,77809.38
2022-11-24T18:23:30.021Z,77799.22
2022-11-24T18:26:02.740Z,77793.16
2022-11-24T18:28:30.368Z,77793.16
2022-11-24T18:31:02.593Z,77797.19
2022-11-24T18:33:30.005Z,77797.19
2022-11-24T18:36:02.061Z,77789.09
2022-11-24T18:38:29.493Z,77793.16
2022-11-24T18:40:59.394Z,77797.19
2022-11-24T18:43:29.389Z,77793.16
2022-11-24T18:45:56.976Z,77789.09
2022-11-24T18:48:25.797Z,77793.16
2022-11-24T18:50:54.843Z,77785.03
2022-11-24T18:53:24.548Z,77780.97
2022-11-24T18:56:06.637Z,77778.94
2022-11-24T18:58:35.584Z,77776.94
2022-11-24T19:01:16.978Z,77772.88
2022-11-24T19:03:48.583Z,77766.78
2022-11-24T19:06:19.758Z,77768.81
2022-11-24T19:08:48.124Z,77768.81
2022-11-24T19:11:28.419Z,77768.81
2022-11-24T19:13:57.063Z,77776.94
2022-11-24T19:16:25.000Z,77780.97
2022-11-24T19:18:56.869Z,77778.94
2022-11-24T19:21:23.810Z,77776.94
2022-11-24T19:23:50.937Z,77780.97
2022-11-24T19:26:18.290Z,77805.31
2022-11-24T19:28:45.607Z,77805.31
2022-11-24T19:31:14.485Z,77797.19
2022-11-24T19:33:42.446Z,77805.31
2022-11-24T19:36:19.152Z,77801.25
2022-11-24T19:38:55.286Z,77801.25
2022-11-24T19:41:24.709Z,77801.25
2022-11-24T19:43:56.416Z,77805.31
2022-11-24T19:46:28.032Z,77801.25
2022-11-24T19:48:59.394Z,77801.25
2022-11-24T19:51:30.756Z,77803.28
2022-11-24T19:53:58.931Z,77803.28
2022-11-24T19:56:28.664Z,77805.31
2022-11-24T19:58:56.450Z,77801.25
2022-11-24T20:01:29.189Z,77801.25
2022-11-24T20:03:59.151Z,77809.38
2022-11-24T20:06:28.662Z,77821.53
2022-11-24T20:08:57.997Z,77821.53
2022-11-24T20:11:25.270Z,77825.59
2022-11-24T20:13:52.509Z,77825.59
2022-11-24T20:16:29.673Z,77825.59
2022-11-24T20:18:59.243Z,77837.75
2022-11-24T20:21:31.206Z,77833.69
2022-11-24T20:23:59.560Z,77825.59
2022-11-24T20:26:32.250Z,77825.59
2022-11-24T20:29:00.395Z,77829.66
2022-11-24T20:31:33.923Z,77837.75
2022-11-24T20:34:02.533Z,77841.81
2022-11-24T20:36:31.670Z,77843.84
2022-11-24T20:39:00.708Z,77837.75
2022-11-24T20:41:30.477Z,77837.75
2022-11-24T20:44:00.768Z,77837.75
2022-11-24T20:46:30.543Z,77841.81
2022-11-24T20:48:58.207Z,77853.97
2022-11-24T20:51:31.591Z,77849.94
2022-11-24T20:54:01.378Z,77845.88
2022-11-24T20:56:31.338Z,77845.88
2022-11-24T20:58:59.156Z,77849.94
2022-11-24T21:01:30.136Z,77847.91
2022-11-24T21:03:59.337Z,77849.94
2022-11-24T21:06:28.210Z,77849.94
2022-11-24T21:09:00.396Z,77843.84
2022-11-24T21:11:30.040Z,77841.81
2022-11-24T21:13:57.114Z,77841.81
2022-11-24T21:16:29.771Z,77849.94
2022-11-24T21:18:59.304Z,77841.81
2022-11-24T21:21:33.399Z,77837.75
2022-11-24T21:24:01.912Z,77845.88
2022-11-24T21:26:29.355Z,77845.88
2022-11-24T21:28:57.374Z,77843.84
2022-11-24T21:31:24.678Z,77841.81
2022-11-24T21:33:53.482Z,77841.81
2022-11-24T21:36:23.272Z,77835.72
2022-11-24T21:38:55.739Z,77843.84
2022-11-24T21:41:25.664Z,77837.75
2022-11-24T21:43:55.515Z,77841.81
2022-11-24T21:46:23.593Z,77849.94
2022-11-24T21:48:50.896Z,77853.97
2022-11-24T21:51:20.771Z,77864.13
2022-11-24T21:53:48.341Z,77862.09
2022-11-24T21:56:20.474Z,77862.09
2022-11-24T21:58:58.031Z,77862.09
2022-11-24T22:01:28.121Z,77866.16
2022-11-24T22:03:56.336Z,77862.09
2022-11-24T22:06:24.117Z,77868.19
2022-11-24T22:08:51.108Z,77874.25
2022-11-24T22:11:23.160Z,77870.22
2022-11-24T22:13:51.014Z,77878.31
2022-11-24T22:16:21.212Z,77882.38
2022-11-24T22:18:49.307Z,77878.31
2022-11-24T22:21:23.789Z,77878.31
2022-11-24T22:23:52.596Z,77878.31
2022-11-24T22:26:22.968Z,77882.38
2022-11-24T22:28:51.178Z,77874.25
2022-11-24T22:31:20.891Z,77878.31
2022-11-24T22:33:48.844Z,77886.44
2022-11-24T22:36:17.660Z,77882.38
2022-11-24T22:38:44.581Z,77878.31
2022-11-24T22:41:14.504Z,77878.31
2022-11-24T22:43:42.932Z,77882.38
2022-11-24T22:46:15.982Z,77880.34
2022-11-24T22:48:45.174Z,77882.38
2022-11-24T22:51:34.255Z,77882.38
2022-11-24T22:54:03.832Z,77882.38
2022-11-24T22:56:32.632Z,77886.44
2022-11-24T22:59:00.947Z,77890.47
2022-11-24T23:01:31.609Z,77898.59
2022-11-24T23:03:58.480Z,77904.69
2022-11-24T23:06:29.580Z,77906.72
2022-11-24T23:08:58.533Z,77910.75
2022-11-24T23:11:37.170Z,77902.66
2022-11-24T23:14:05.562Z,77902.66
2022-11-24T23:16:32.956Z,77906.72
2022-11-24T23:19:00.184Z,77910.75
2022-11-24T23:21:29.818Z,77922.94
2022-11-24T23:23:58.847Z,77920.91
2022-11-24T23:26:35.408Z,77918.88
2022-11-24T23:29:02.623Z,77918.88
2022-11-24T23:31:30.253Z,77918.88
2022-11-24T23:33:59.035Z,77918.88
2022-11-24T23:36:26.513Z,77931.03
2022-11-24T23:38:54.581Z,77931.03
2022-11-24T23:41:24.689Z,77935.09
2022-11-24T23:43:52.474Z,77926.97
2022-11-24T23:46:22.146Z,77914.81
2022-11-24T23:48:51.326Z,77914.81
2022-11-24T23:51:18.357Z,77910.75
2022-11-24T23:53:45.982Z,77906.72
2022-11-24T23:56:19.347Z,77898.59
2022-11-24T23:58:46.889Z,77902.66
